createdAt,value
2023-05-05T00:00:37.866Z,2.60
2023-05-05T00:03:42.735Z,3.15
2023-05-05T00:06:46.373Z,3.15
2023-05-05T00:09:49.294Z,2.90
2023-05-05T00:12:52.283Z,3.10
2023-05-05T00:15:55.310Z,2.67
2023-05-05T00:18:59.021Z,2.65
2023-05-05T00:22:02.114Z,3.20
2023-05-05T00:25:05.380Z,2.95
2023-05-05T00:28:08.378Z,3.03
2023-05-05T00:31:12.270Z,2.38
2023-05-05T00:34:15.501Z,3.03
2023-05-05T00:37:18.566Z,3.00
2023-05-05T00:40:21.792Z,2.45
2023-05-05T00:43:24.758Z,2.80
2023-05-05T00:46:29.259Z,2.90
2023-05-05T00:49:33.128Z,3.10
2023-05-05T00:52:39.658Z,3.20
2023-05-05T00:55:42.708Z,3.10
2023-05-05T00:58:45.809Z,2.70
2023-05-05T01:01:49.078Z,2.70
2023-05-05T01:04:52.755Z,2.67
2023-05-05T01:08:38.247Z,2.70
2023-05-05T01:11:51.967Z,2.80
2023-05-05T01:15:21.375Z,3.57
2023-05-05T01:18:45.815Z,3.20
2023-05-05T01:21:53.804Z,3.05
2023-05-05T01:25:13.609Z,2.70
2023-05-05T01:28:23.505Z,3.20
2023-05-05T01:31:51.957Z,2.90
2023-05-05T01:35:01.410Z,2.75
2023-05-05T01:38:17.767Z,3.15
2023-05-05T01:41:25.258Z,3.00
2023-05-05T01:44:28.234Z,3.25
2023-05-05T01:47:31.271Z,3.50
2023-05-05T01:50:34.232Z,2.95
2023-05-05T01:53:37.183Z,2.85
2023-05-05T01:56:40.906Z,3.25
2023-05-05T01:59:44.103Z,3.38
2023-05-05T02:02:47.825Z,3.20
2023-05-05T02:05:51.568Z,3.33
2023-05-05T02:08:54.646Z,3.05
2023-05-05T02:12:00.653Z,2.83
2023-05-05T02:15:03.828Z,3.38
2023-05-05T02:18:07.745Z,3.10
2023-05-05T02:21:10.823Z,2.90
2023-05-05T02:24:13.830Z,3.30
2023-05-05T02:27:17.913Z,3.30
2023-05-05T02:30:20.918Z,3.20
2023-05-05T02:33:23.890Z,2.70
2023-05-05T02:36:29.195Z,2.72
2023-05-05T02:39:38.084Z,3.38
2023-05-05T02:42:47.071Z,3.60
2023-05-05T02:45:50.663Z,3.37
2023-05-05T02:48:54.856Z,3.43
2023-05-05T02:51:58.139Z,3.55
2023-05-05T02:55:04.256Z,3.15
2023-05-05T02:58:28.379Z,3.70
2023-05-05T03:01:53.380Z,3.30
2023-05-05T03:05:06.862Z,3.40
2023-05-05T03:08:17.741Z,3.90
2023-05-05T03:11:29.489Z,4.07
2023-05-05T03:14:36.562Z,3.95
2023-05-05T03:17:41.871Z,4.50
2023-05-05T03:20:45.326Z,4.70
2023-05-05T03:23:51.179Z,4.95
2023-05-05T03:26:57.695Z,4.28
2023-05-05T03:30:07.586Z,4.90
2023-05-05T03:33:14.843Z,3.83
2023-05-05T03:36:18.425Z,4.70
2023-05-05T03:39:21.917Z,6.53
2023-05-05T03:42:25.947Z,8.02
2023-05-05T03:45:29.539Z,5.68
2023-05-05T03:48:34.044Z,4.30
2023-05-05T03:51:37.458Z,4.90
2023-05-05T03:54:40.709Z,4.68
2023-05-05T03:57:45.142Z,4.53
2023-05-05T04:00:48.137Z,4.43
2023-05-05T04:03:51.924Z,4.77
2023-05-05T04:06:56.000Z,4.53
2023-05-05T04:09:59.078Z,5.43
2023-05-05T04:13:02.613Z,5.60
2023-05-05T04:16:08.793Z,5.20
2023-05-05T04:19:13.584Z,5.03
2023-05-05T04:22:17.214Z,4.67
2023-05-05T04:25:20.602Z,4.88
2023-05-05T04:28:24.934Z,5.32
2023-05-05T04:31:28.024Z,4.80
2023-05-05T04:34:31.131Z,5.40
2023-05-05T04:37:34.365Z,4.40
2023-05-05T04:40:41.360Z,5.80
2023-05-05T04:43:46.161Z,6.43
2023-05-05T04:46:50.905Z,6.72
2023-05-05T04:49:57.140Z,5.57
2023-05-05T04:53:01.400Z,5.53
2023-05-05T04:56:04.498Z,4.82
2023-05-05T04:59:08.310Z,4.40
2023-05-05T05:02:11.289Z,4.50
2023-05-05T05:05:14.332Z,4.80
2023-05-05T05:08:17.666Z,4.80
2023-05-05T05:11:22.152Z,5.47
2023-05-05T05:14:25.747Z,5.05
2023-05-05T05:17:30.470Z,4.90
2023-05-05T05:20:34.164Z,4.60
2023-05-05T05:23:37.611Z,4.80
2023-05-05T05:26:43.433Z,4.55
2023-05-05T05:29:46.618Z,4.63
2023-05-05T05:32:49.979Z,4.35
2023-05-05T05:35:53.522Z,4.50
2023-05-05T05:38:58.268Z,4.00
2023-05-05T05:42:02.854Z,4.70
2023-05-05T05:45:07.177Z,4.72
2023-05-05T05:48:10.383Z,4.70
2023-05-05T05:51:13.736Z,4.60
2023-05-05T05:54:16.960Z,5.23
2023-05-05T05:57:22.222Z,4.18
2023-05-05T06:00:26.082Z,4.22
2023-05-05T06:03:36.095Z,4.72
2023-05-05T06:06:39.539Z,4.30
2023-05-05T06:09:42.594Z,4.60
2023-05-05T06:12:46.023Z,4.20
2023-05-05T06:15:49.213Z,4.07
2023-05-05T06:18:53.041Z,3.75
2023-05-05T06:21:56.279Z,4.23
2023-05-05T06:24:59.401Z,4.63
2023-05-05T06:28:02.607Z,4.20
2023-05-05T06:31:05.817Z,4.00
2023-05-05T06:34:09.187Z,3.45
2023-05-05T06:37:15.990Z,4.27
2023-05-05T06:40:19.151Z,4.43
2023-05-05T06:43:22.149Z,3.83
2023-05-05T06:46:30.544Z,4.30
2023-05-05T06:49:33.839Z,4.38
2023-05-05T06:52:37.030Z,3.23
2023-05-05T06:55:43.171Z,3.40
2023-05-05T06:58:46.499Z,3.42
2023-05-05T07:01:49.559Z,3.33
2023-05-05T07:04:52.600Z,3.38
2023-05-05T07:07:56.124Z,3.13
2023-05-05T07:11:01.133Z,3.43
2023-05-05T07:14:04.191Z,3.63
2023-05-05T07:17:07.479Z,3.40
2023-05-05T07:20:11.069Z,3.38
2023-05-05T07:23:14.086Z,3.53
2023-05-05T07:26:17.087Z,3.43
2023-05-05T07:29:20.074Z,3.10
2023-05-05T07:32:23.109Z,3.15
2023-05-05T07:35:26.458Z,3.50
2023-05-05T07:38:29.524Z,3.37
2023-05-05T07:41:32.873Z,3.60
2023-05-05T07:44:36.030Z,3.58
2023-05-05T07:47:39.156Z,3.45
2023-05-05T07:50:42.244Z,3.42
2023-05-05T07:53:45.314Z,3.37
2023-05-05T07:56:52.541Z,3.50
2023-05-05T07:59:55.795Z,3.38
2023-05-05T08:02:58.921Z,3.58
2023-05-05T08:06:09.049Z,3.70
2023-05-05T08:09:12.097Z,3.90
2023-05-05T08:12:24.422Z,3.50
2023-05-05T08:15:30.064Z,3.53
2023-05-05T08:18:37.758Z,3.85
2023-05-05T08:21:40.721Z,3.42
2023-05-05T08:24:43.730Z,4.17
2023-05-05T08:27:46.836Z,3.70
2023-05-05T08:30:50.883Z,3.75
2023-05-05T08:33:54.363Z,4.63
2023-05-05T08:36:57.426Z,4.00
2023-05-05T08:40:00.489Z,4.40
2023-05-05T08:43:09.795Z,4.10
2023-05-05T08:46:13.463Z,4.32
2023-05-05T08:49:16.575Z,4.40
2023-05-05T08:52:22.714Z,4.50
2023-05-05T08:55:26.906Z,4.63
2023-05-05T08:58:30.679Z,4.43
2023-05-05T09:01:34.907Z,4.00
2023-05-05T09:04:43.960Z,4.45
2023-05-05T09:07:47.440Z,4.53
2023-05-05T09:10:50.808Z,4.50
2023-05-05T09:13:53.924Z,5.07
2023-05-05T09:16:56.971Z,5.80
2023-05-05T09:20:10.042Z,5.05
2023-05-05T09:23:14.375Z,5.15
2023-05-05T09:26:17.378Z,5.27
2023-05-05T09:29:21.139Z,4.80
2023-05-05T09:32:24.313Z,5.20
2023-05-05T09:35:27.574Z,5.07
2023-05-05T09:38:30.664Z,4.72
2023-05-05T09:41:44.236Z,4.87
2023-05-05T09:44:47.390Z,4.97
2023-05-05T09:47:50.620Z,5.20
2023-05-05T09:50:54.022Z,4.75
2023-05-05T09:53:56.982Z,5.10
2023-05-05T09:56:59.970Z,4.53
2023-05-05T10:00:04.493Z,5.00
2023-05-05T10:03:08.688Z,5.20
2023-05-05T10:06:11.817Z,4.60
2023-05-05T10:09:15.284Z,5.20
2023-05-05T10:12:18.245Z,4.33
2023-05-05T10:15:21.448Z,4.97
2023-05-05T10:18:26.389Z,4.20
2023-05-05T10:21:34.899Z,4.90
2023-05-05T10:24:52.955Z,4.55
2023-05-05T10:27:56.821Z,4.30
2023-05-05T10:31:09.997Z,4.67
2023-05-05T10:34:29.888Z,4.53
2023-05-05T10:37:34.179Z,4.57
2023-05-05T10:40:37.247Z,4.50
2023-05-05T10:43:40.402Z,5.27
2023-05-05T10:46:44.578Z,5.00
2023-05-05T10:50:09.084Z,5.53
2023-05-05T10:53:28.192Z,5.75
2023-05-05T10:56:32.703Z,4.53
2023-05-05T10:59:39.052Z,5.23
2023-05-05T11:02:42.167Z,5.37
2023-05-05T11:06:04.115Z,5.53
2023-05-05T11:09:28.965Z,5.93
2023-05-05T11:12:33.007Z,5.03
2023-05-05T11:15:38.023Z,5.87
2023-05-05T11:18:44.413Z,6.23
2023-05-05T11:22:07.704Z,5.57
2023-05-05T11:25:35.560Z,5.82
2023-05-05T11:28:58.507Z,5.82
2023-05-05T11:32:14.173Z,5.70
2023-05-05T11:35:17.307Z,5.40
2023-05-05T11:38:22.021Z,5.60
2023-05-05T11:41:52.465Z,6.28
2023-05-05T11:44:55.551Z,7.75
2023-05-05T11:48:27.906Z,5.97
2023-05-05T11:51:31.064Z,5.90
2023-05-05T11:54:35.543Z,6.53
2023-05-05T11:57:38.593Z,6.50
2023-05-05T12:00:41.626Z,5.47
2023-05-05T12:03:45.845Z,6.33
2023-05-05T12:06:49.217Z,6.10
2023-05-05T12:09:52.427Z,5.75
2023-05-05T12:12:56.103Z,6.25
2023-05-05T12:16:14.944Z,5.40
2023-05-05T12:19:17.887Z,6.10
2023-05-05T12:22:25.319Z,5.80
2023-05-05T12:25:36.025Z,5.90
2023-05-05T12:28:48.487Z,5.60
2023-05-05T12:31:51.636Z,5.88
2023-05-05T12:34:56.359Z,6.07
2023-05-05T12:37:59.924Z,5.40
2023-05-05T12:41:02.966Z,6.45
2023-05-05T12:44:05.976Z,5.30
2023-05-05T12:47:09.018Z,5.22
2023-05-05T12:50:12.031Z,5.30
2023-05-05T12:53:24.588Z,5.87
2023-05-05T12:56:34.411Z,5.95
2023-05-05T12:59:37.438Z,5.75
2023-05-05T13:02:40.616Z,6.28
2023-05-05T13:05:43.686Z,5.80
2023-05-05T13:08:46.694Z,5.20
2023-05-05T13:11:49.632Z,4.97
2023-05-05T13:14:52.578Z,5.00
2023-05-05T13:18:02.668Z,4.63
2023-05-05T13:21:06.029Z,5.67
2023-05-05T13:24:25.421Z,4.83
2023-05-05T13:27:31.560Z,4.60
2023-05-05T13:30:34.575Z,5.60
2023-05-05T13:33:37.533Z,5.38
2023-05-05T13:36:40.604Z,4.90
2023-05-05T13:39:43.812Z,4.30
2023-05-05T13:42:46.951Z,4.90
2023-05-05T13:45:49.950Z,4.63
2023-05-05T13:48:56.628Z,4.88
2023-05-05T13:51:59.974Z,4.80
2023-05-05T13:55:03.090Z,4.37
2023-05-05T13:58:06.325Z,4.90
2023-05-05T14:01:09.523Z,5.10
2023-05-05T14:04:12.547Z,4.82
2023-05-05T14:07:15.747Z,3.80
2023-05-05T14:10:18.662Z,3.53
2023-05-05T14:13:21.708Z,4.65
2023-05-05T14:16:27.639Z,3.83
2023-05-05T14:19:36.550Z,4.75
2023-05-05T14:22:39.500Z,4.27
2023-05-05T14:25:42.734Z,3.90
2023-05-05T14:28:48.954Z,4.15
2023-05-05T14:31:52.858Z,3.58
2023-05-05T14:34:56.421Z,3.40
2023-05-05T14:37:59.358Z,3.40
2023-05-05T14:41:02.774Z,3.23
2023-05-05T14:44:05.852Z,3.47
2023-05-05T14:47:08.821Z,3.88
2023-05-05T14:50:12.056Z,4.15
2023-05-05T14:53:15.112Z,4.20
2023-05-05T14:56:18.176Z,3.67
2023-05-05T14:59:21.134Z,3.95
2023-05-05T15:02:24.163Z,3.72
2023-05-05T15:05:27.194Z,3.70
2023-05-05T15:08:30.112Z,3.60
2023-05-05T15:11:33.309Z,3.30
2023-05-05T15:14:38.168Z,3.33
2023-05-05T15:17:41.842Z,3.38
2023-05-05T15:20:44.847Z,2.83
2023-05-05T15:23:47.799Z,3.17
2023-05-05T15:26:50.768Z,3.50
2023-05-05T15:29:54.492Z,3.20
2023-05-05T15:32:57.627Z,3.60
2023-05-05T15:36:00.633Z,3.50
2023-05-05T15:39:03.678Z,3.50
2023-05-05T15:42:06.879Z,3.43
2023-05-05T15:45:12.310Z,3.13
2023-05-05T15:48:15.352Z,3.17
2023-05-05T15:51:18.263Z,3.15
2023-05-05T15:54:21.259Z,3.97
2023-05-05T15:57:24.198Z,3.80
2023-05-05T16:00:33.204Z,3.80
2023-05-05T16:03:42.092Z,3.70
2023-05-05T16:06:46.950Z,3.38
2023-05-05T16:09:50.097Z,3.53
2023-05-05T16:12:53.160Z,3.43
2023-05-05T16:15:56.168Z,3.60
2023-05-05T16:18:59.088Z,3.72
2023-05-05T16:22:02.089Z,4.03
2023-05-05T16:25:05.456Z,3.87
2023-05-05T16:28:08.457Z,3.80
2023-05-05T16:31:11.556Z,4.00
2023-05-05T16:34:14.899Z,3.38
2023-05-05T16:37:18.272Z,3.35
2023-05-05T16:40:22.123Z,3.80
2023-05-05T16:43:25.022Z,3.43
2023-05-05T16:46:28.207Z,3.25
2023-05-05T16:49:31.344Z,3.33
2023-05-05T16:52:34.275Z,3.70
2023-05-05T16:55:37.533Z,3.13
2023-05-05T16:58:40.945Z,2.97
2023-05-05T17:01:43.904Z,3.15
2023-05-05T17:04:46.860Z,3.38
2023-05-05T17:07:49.903Z,4.10
2023-05-05T17:10:52.863Z,3.30
2023-05-05T17:13:56.379Z,3.30
2023-05-05T17:16:59.313Z,3.72
2023-05-05T17:20:05.273Z,4.05
2023-05-05T17:23:08.853Z,3.67
2023-05-05T17:26:11.746Z,3.80
2023-05-05T17:29:15.543Z,3.93
2023-05-05T17:32:18.589Z,4.05
2023-05-05T17:35:21.834Z,3.50
2023-05-05T17:38:24.898Z,3.83
2023-05-05T17:41:27.877Z,3.53
2023-05-05T17:44:32.745Z,3.70
2023-05-05T17:47:36.302Z,3.40
2023-05-05T17:50:40.289Z,3.40
2023-05-05T17:53:44.907Z,3.53
2023-05-05T17:56:47.818Z,3.87
2023-05-05T17:59:52.014Z,3.93
2023-05-05T18:02:55.041Z,3.53
2023-05-05T18:05:58.130Z,3.38
2023-05-05T18:09:01.118Z,3.42
2023-05-05T18:12:04.640Z,3.90
2023-05-05T18:15:09.140Z,4.70
2023-05-05T18:18:12.328Z,3.92
2023-05-05T18:21:15.267Z,4.38
2023-05-05T18:24:20.324Z,5.40
2023-05-05T18:27:23.723Z,5.20
2023-05-05T18:30:26.663Z,5.67
2023-05-05T18:33:29.638Z,4.85
2023-05-05T18:36:32.670Z,5.13
2023-05-05T18:39:35.701Z,6.30
2023-05-05T18:42:38.778Z,6.83
2023-05-05T18:45:41.979Z,6.93
2023-05-05T18:48:45.036Z,5.50
2023-05-05T18:51:48.038Z,6.07
2023-05-05T18:54:51.156Z,5.80
2023-05-05T18:57:54.213Z,6.33
2023-05-05T19:00:57.887Z,6.00
2023-05-05T19:04:00.993Z,6.20
2023-05-05T19:07:04.463Z,5.65
2023-05-05T19:10:08.428Z,5.88
2023-05-05T19:13:11.463Z,6.77
2023-05-05T19:16:14.497Z,5.77
2023-05-05T19:19:17.557Z,6.80
2023-05-05T19:22:23.057Z,5.95
2023-05-05T19:25:26.025Z,6.28
2023-05-05T19:28:29.273Z,6.17
2023-05-05T19:31:32.251Z,6.40
2023-05-05T19:34:37.931Z,6.45
2023-05-05T19:37:43.982Z,7.30
2023-05-05T19:40:46.997Z,6.95
2023-05-05T19:43:50.089Z,6.60
2023-05-05T19:46:53.566Z,8.13
2023-05-05T19:49:56.508Z,6.72
2023-05-05T19:52:59.547Z,7.05
2023-05-05T19:56:02.660Z,6.70
2023-05-05T19:59:06.573Z,6.77
2023-05-05T20:02:10.244Z,6.63
2023-05-05T20:05:14.988Z,7.15
2023-05-05T20:08:17.954Z,6.55
2023-05-05T20:11:21.308Z,7.00
2023-05-05T20:14:24.291Z,9.27
2023-05-05T20:17:27.396Z,9.00
2023-05-05T20:20:30.543Z,8.82
2023-05-05T20:23:33.775Z,9.18
2023-05-05T20:26:36.749Z,8.32
2023-05-05T20:29:39.676Z,8.27
2023-05-05T20:32:42.652Z,8.03
2023-05-05T20:35:45.744Z,7.82
2023-05-05T20:38:48.693Z,7.40
2023-05-05T20:41:51.639Z,7.47
2023-05-05T20:44:54.664Z,7.53
2023-05-05T20:47:58.390Z,6.57
2023-05-05T20:51:06.621Z,6.25
2023-05-05T20:54:10.238Z,6.60
2023-05-05T20:57:13.242Z,6.13
2023-05-05T21:00:16.365Z,7.00
2023-05-05T21:03:19.354Z,6.57
2023-05-05T21:06:22.306Z,5.88
2023-05-05T21:09:25.256Z,6.53
2023-05-05T21:12:29.291Z,6.40
2023-05-05T21:15:32.218Z,6.47
2023-05-05T21:18:35.184Z,7.00
2023-05-05T21:21:38.146Z,7.45
2023-05-05T21:24:41.117Z,6.13
2023-05-05T21:27:44.110Z,6.13
2023-05-05T21:30:59.403Z,6.83
2023-05-05T21:34:10.010Z,6.53
2023-05-05T21:37:13.047Z,7.68
2023-05-05T21:40:16.519Z,7.32
2023-05-05T21:43:19.474Z,8.05
2023-05-05T21:46:23.663Z,8.87
2023-05-05T21:49:26.614Z,8.37
2023-05-05T21:52:29.580Z,8.60
2023-05-05T21:55:32.524Z,8.00
2023-05-05T21:58:35.537Z,6.90
2023-05-05T22:01:38.582Z,7.90
2023-05-05T22:04:41.680Z,8.00
2023-05-05T22:07:44.598Z,7.75
2023-05-05T22:10:47.714Z,7.18
2023-05-05T22:13:50.641Z,7.70
2023-05-05T22:16:53.618Z,8.73
2023-05-05T22:19:56.568Z,9.10
2023-05-05T22:22:59.516Z,8.38
2023-05-05T22:26:02.555Z,9.18
2023-05-05T22:29:05.501Z,7.57
2023-05-05T22:32:08.590Z,8.97
2023-05-05T22:35:11.766Z,8.80
2023-05-05T22:38:14.915Z,8.75
2023-05-05T22:41:17.845Z,7.72
2023-05-05T22:44:21.073Z,8.27
2023-05-05T22:47:24.132Z,8.00
2023-05-05T22:50:27.162Z,8.40
2023-05-05T22:53:30.190Z,7.95
2023-05-05T22:56:33.210Z,7.40
2023-05-05T22:59:36.223Z,7.20
2023-05-05T23:02:39.464Z,7.50
2023-05-05T23:05:42.515Z,7.43
2023-05-05T23:08:45.681Z,7.88
2023-05-05T23:11:48.633Z,7.75
2023-05-05T23:14:52.477Z,7.57
2023-05-05T23:17:55.641Z,7.60
2023-05-05T23:20:58.604Z,7.70
2023-05-05T23:24:01.590Z,7.78
2023-05-05T23:27:04.603Z,8.00
2023-05-05T23:30:08.923Z,8.68
2023-05-05T23:33:11.927Z,7.80
2023-05-05T23:36:14.866Z,8.77
2023-05-05T23:39:17.777Z,7.63
2023-05-05T23:42:21.256Z,7.47
2023-05-05T23:45:24.206Z,7.75
2023-05-05T23:48:27.110Z,7.90
2023-05-05T23:51:31.032Z,7.13
2023-05-05T23:54:33.976Z,8.02
2023-05-05T23:57:37.026Z,8.80
